createdAt,value
2023-02-23T00:01:53.990Z,14.61
2023-02-23T00:04:21.056Z,14.61
2023-02-23T00:06:47.883Z,14.62
2023-02-23T00:09:24.756Z,14.61
2023-02-23T00:11:53.625Z,14.62
2023-02-23T00:14:20.680Z,14.58
2023-02-23T00:16:47.425Z,14.56
2023-02-23T00:19:14.238Z,14.58
2023-02-23T00:21:41.903Z,14.55
2023-02-23T00:24:14.800Z,14.55
2023-02-23T00:26:45.414Z,14.52
2023-02-23T00:29:17.524Z,14.51
2023-02-23T00:31:48.877Z,14.41
2023-02-23T00:34:21.094Z,14.39
2023-02-23T00:36:51.517Z,14.31
2023-02-23T00:39:21.675Z,14.30
2023-02-23T00:41:49.371Z,14.28
2023-02-23T00:44:16.107Z,14.27
2023-02-23T00:46:43.772Z,14.25
2023-02-23T00:49:12.843Z,14.25
2023-02-23T00:51:39.828Z,14.24
2023-02-23T00:54:07.898Z,14.25
2023-02-23T00:56:34.912Z,14.27
2023-02-23T00:59:02.015Z,14.30
2023-02-23T01:01:29.017Z,14.27
2023-02-23T01:03:55.772Z,14.20
2023-02-23T01:06:22.908Z,14.18
2023-02-23T01:08:52.291Z,14.16
2023-02-23T01:11:21.937Z,14.17
2023-02-23T01:13:52.153Z,14.20
2023-02-23T01:16:22.641Z,14.17
2023-02-23T01:18:49.585Z,14.18
2023-02-23T01:21:20.695Z,14.17
2023-02-23T01:23:47.966Z,14.17
2023-02-23T01:26:22.967Z,14.18
2023-02-23T01:28:54.302Z,14.20
2023-02-23T01:31:22.839Z,14.21
2023-02-23T01:33:54.682Z,14.20
2023-02-23T01:36:21.456Z,14.17
2023-02-23T01:38:49.277Z,14.20
2023-02-23T01:41:17.301Z,14.17
2023-02-23T01:44:13.461Z,14.13
2023-02-23T01:46:43.139Z,14.04
2023-02-23T01:49:16.099Z,14.01
2023-02-23T01:52:04.242Z,14.00
2023-02-23T01:54:36.348Z,14.01
2023-02-23T01:57:06.265Z,14.00
2023-02-23T01:59:39.909Z,13.93
2023-02-23T02:02:07.760Z,13.89
2023-02-23T02:04:47.104Z,13.87
2023-02-23T02:07:18.099Z,13.86
2023-02-23T02:10:06.527Z,13.79
2023-02-23T02:12:33.873Z,13.74
2023-02-23T02:15:00.976Z,13.67
2023-02-23T02:17:45.216Z,13.61
2023-02-23T02:20:32.626Z,13.55
2023-02-23T02:23:13.890Z,13.51
2023-02-23T02:25:59.390Z,13.39
2023-02-23T02:28:38.520Z,13.37
2023-02-23T02:31:49.709Z,13.41
2023-02-23T02:34:18.250Z,13.44
2023-02-23T02:37:03.651Z,13.46
2023-02-23T02:39:53.708Z,13.51
2023-02-23T02:42:31.901Z,13.54
2023-02-23T02:45:37.432Z,13.55
2023-02-23T02:48:21.580Z,13.59
2023-02-23T02:50:55.572Z,13.56
2023-02-23T02:53:37.417Z,13.55
2023-02-23T02:56:06.814Z,13.51
2023-02-23T02:58:33.951Z,13.44
2023-02-23T03:01:31.877Z,13.37
2023-02-23T03:04:19.157Z,13.28
2023-02-23T03:07:17.892Z,13.25
2023-02-23T03:10:14.978Z,13.19
2023-02-23T03:13:34.337Z,13.15
2023-02-23T03:16:42.053Z,13.15
2023-02-23T03:19:42.740Z,13.15
2023-02-23T03:22:43.217Z,13.06
2023-02-23T03:25:45.834Z,12.97
2023-02-23T03:28:38.421Z,12.91
2023-02-23T03:31:46.037Z,12.83
2023-02-23T03:34:36.524Z,12.81
2023-02-23T03:37:47.137Z,12.76
2023-02-23T03:40:44.269Z,12.75
2023-02-23T03:43:37.889Z,12.76
2023-02-23T03:46:29.205Z,12.79
2023-02-23T03:49:18.989Z,12.81
2023-02-23T03:52:08.143Z,12.86
2023-02-23T03:55:05.659Z,12.87
2023-02-23T03:57:54.484Z,12.89
2023-02-23T04:00:44.713Z,12.90
2023-02-23T04:03:32.259Z,12.90
2023-02-23T04:06:18.134Z,12.86
2023-02-23T04:09:05.549Z,12.80
2023-02-23T04:12:09.347Z,12.79
2023-02-23T04:15:14.241Z,12.83
2023-02-23T04:17:42.252Z,12.86
2023-02-23T04:20:12.788Z,12.87
2023-02-23T04:22:39.800Z,12.86
2023-02-23T04:25:09.101Z,12.87
2023-02-23T04:27:36.411Z,12.86
2023-02-23T04:30:03.889Z,12.86
2023-02-23T04:32:31.060Z,12.84
2023-02-23T04:34:57.703Z,12.81
2023-02-23T04:37:24.589Z,12.80
2023-02-23T04:39:51.202Z,12.79
2023-02-23T04:42:18.448Z,12.79
2023-02-23T04:44:45.399Z,12.76
2023-02-23T04:47:14.459Z,12.75
2023-02-23T04:49:41.052Z,12.75
2023-02-23T04:52:07.651Z,12.76
2023-02-23T04:54:37.292Z,12.76
2023-02-23T04:57:04.089Z,12.76
2023-02-23T04:59:31.557Z,12.76
2023-02-23T05:01:58.415Z,12.72
2023-02-23T05:04:25.123Z,12.62
2023-02-23T05:06:51.789Z,12.57
2023-02-23T05:09:18.363Z,12.55
2023-02-23T05:11:45.022Z,12.52
2023-02-23T05:14:12.536Z,12.48
2023-02-23T05:16:39.564Z,12.46
2023-02-23T05:19:06.472Z,12.45
2023-02-23T05:21:33.080Z,12.42
2023-02-23T05:24:00.346Z,12.38
2023-02-23T05:26:26.973Z,12.34
2023-02-23T05:28:54.986Z,12.38
2023-02-23T05:31:22.058Z,12.41
2023-02-23T05:33:48.937Z,12.42
2023-02-23T05:36:18.096Z,12.45
2023-02-23T05:38:46.490Z,12.44
2023-02-23T05:41:20.675Z,12.44
2023-02-23T05:43:48.527Z,12.42
2023-02-23T05:46:17.916Z,12.38
2023-02-23T05:48:44.568Z,12.35
2023-02-23T05:51:13.435Z,12.29
2023-02-23T05:53:40.877Z,12.22
2023-02-23T05:56:09.122Z,12.17
2023-02-23T05:58:35.753Z,12.15
2023-02-23T06:01:02.430Z,12.20
2023-02-23T06:03:29.530Z,12.15
2023-02-23T06:05:58.055Z,12.17
2023-02-23T06:08:26.060Z,12.13
2023-02-23T06:10:53.433Z,12.15
2023-02-23T06:13:21.474Z,12.14
2023-02-23T06:15:49.517Z,12.13
2023-02-23T06:18:17.668Z,12.01
2023-02-23T06:20:46.070Z,11.90
2023-02-23T06:23:13.545Z,11.83
2023-02-23T06:25:41.116Z,11.62
2023-02-23T06:28:08.713Z,11.52
2023-02-23T06:30:36.019Z,11.42
2023-02-23T06:33:02.737Z,11.38
2023-02-23T06:35:29.417Z,11.29
2023-02-23T06:37:57.040Z,11.24
2023-02-23T06:40:23.642Z,11.15
2023-02-23T06:42:50.553Z,11.14
2023-02-23T06:45:19.250Z,11.10
2023-02-23T06:47:47.228Z,11.10
2023-02-23T06:50:15.056Z,11.10
2023-02-23T06:52:42.092Z,11.12
2023-02-23T06:55:09.554Z,11.18
2023-02-23T06:57:36.337Z,11.29
2023-02-23T07:00:03.781Z,11.40
2023-02-23T07:02:30.393Z,11.44
2023-02-23T07:04:57.089Z,11.55
2023-02-23T07:07:23.711Z,11.67
2023-02-23T07:09:50.367Z,11.76
2023-02-23T07:12:17.472Z,11.90
2023-02-23T07:14:44.090Z,11.97
2023-02-23T07:17:12.671Z,12.05
2023-02-23T07:19:39.683Z,12.13
2023-02-23T07:22:06.268Z,12.20
2023-02-23T07:24:32.892Z,12.25
2023-02-23T07:26:59.560Z,12.29
2023-02-23T07:29:27.709Z,12.38
2023-02-23T07:31:54.784Z,12.42
2023-02-23T07:34:21.811Z,12.49
2023-02-23T07:36:48.560Z,12.55
2023-02-23T07:39:15.233Z,12.59
2023-02-23T07:41:41.887Z,12.62
2023-02-23T07:44:08.589Z,12.64
2023-02-23T07:46:35.194Z,12.66
2023-02-23T07:49:01.850Z,12.75
2023-02-23T07:51:28.548Z,12.77
2023-02-23T07:53:55.384Z,12.81
2023-02-23T07:56:22.274Z,12.89
2023-02-23T07:58:48.871Z,12.93
2023-02-23T08:01:16.113Z,12.97
2023-02-23T08:03:49.879Z,13.03
2023-02-23T08:06:17.583Z,13.07
2023-02-23T08:08:44.554Z,13.14
2023-02-23T08:11:12.006Z,13.19
2023-02-23T08:13:38.954Z,13.24
2023-02-23T08:16:05.753Z,13.24
2023-02-23T08:18:32.661Z,13.28
2023-02-23T08:21:04.941Z,13.29
2023-02-23T08:23:33.680Z,13.32
2023-02-23T08:26:01.627Z,13.34
2023-02-23T08:28:30.494Z,13.38
2023-02-23T08:30:57.675Z,13.41
2023-02-23T08:33:24.422Z,13.42
2023-02-23T08:35:53.651Z,13.44
2023-02-23T08:38:20.526Z,13.41
2023-02-23T08:40:47.355Z,13.42
2023-02-23T08:43:13.932Z,13.44
2023-02-23T08:45:40.540Z,13.41
2023-02-23T08:48:08.900Z,13.42
2023-02-23T08:50:35.619Z,13.41
2023-02-23T08:53:02.428Z,13.39
2023-02-23T08:55:29.042Z,13.34
2023-02-23T08:57:55.601Z,13.34
2023-02-23T09:00:22.753Z,13.32
2023-02-23T09:02:49.439Z,13.31
2023-02-23T09:05:16.933Z,13.25
2023-02-23T09:07:45.269Z,13.22
2023-02-23T09:10:25.008Z,13.19
2023-02-23T09:12:51.875Z,13.18
2023-02-23T09:15:18.633Z,13.21
2023-02-23T09:17:45.761Z,13.15
2023-02-23T09:20:13.910Z,13.15
2023-02-23T09:22:44.743Z,13.15
2023-02-23T09:25:12.871Z,13.18
2023-02-23T09:27:39.478Z,13.21
2023-02-23T09:30:06.556Z,13.22
2023-02-23T09:32:33.250Z,13.19
2023-02-23T09:34:59.925Z,13.22
2023-02-23T09:37:26.545Z,13.21
2023-02-23T09:39:53.154Z,13.21
2023-02-23T09:42:31.271Z,13.15
2023-02-23T09:45:08.254Z,13.06
2023-02-23T09:47:55.500Z,12.96
2023-02-23T09:50:25.642Z,12.87
2023-02-23T09:53:01.478Z,12.80
2023-02-23T09:55:28.893Z,12.70
2023-02-23T09:57:58.045Z,12.66
2023-02-23T10:00:29.523Z,12.60
2023-02-23T10:03:28.203Z,12.56
2023-02-23T10:06:06.440Z,12.55
2023-02-23T10:08:39.620Z,12.55
2023-02-23T10:11:08.823Z,12.50
2023-02-23T10:13:56.054Z,12.38
2023-02-23T10:16:31.951Z,12.17
2023-02-23T10:19:13.773Z,12.13
2023-02-23T10:21:42.979Z,12.04
2023-02-23T10:24:18.384Z,11.91
2023-02-23T10:26:54.318Z,11.81
2023-02-23T10:29:30.208Z,11.76
2023-02-23T10:32:35.248Z,11.70
2023-02-23T10:35:06.437Z,11.69
2023-02-23T10:37:33.069Z,11.67
2023-02-23T10:39:59.784Z,11.60
2023-02-23T10:42:32.055Z,11.65
2023-02-23T10:44:59.494Z,11.60
2023-02-23T10:47:35.625Z,11.59
2023-02-23T10:50:03.639Z,11.58
2023-02-23T10:52:41.586Z,11.52
2023-02-23T10:55:24.352Z,11.43
2023-02-23T10:58:05.561Z,11.35
2023-02-23T11:00:36.967Z,11.38
2023-02-23T11:03:19.137Z,11.33
2023-02-23T11:05:51.403Z,11.28
2023-02-23T11:08:38.175Z,11.29
2023-02-23T11:11:07.043Z,11.31
2023-02-23T11:13:42.893Z,11.28
2023-02-23T11:16:15.502Z,11.28
2023-02-23T11:18:50.869Z,11.24
2023-02-23T11:21:35.808Z,11.32
2023-02-23T11:24:22.544Z,11.36
2023-02-23T11:26:52.748Z,11.33
2023-02-23T11:29:27.152Z,11.38
2023-02-23T11:31:57.637Z,11.39
2023-02-23T11:34:33.208Z,11.26
2023-02-23T11:37:07.118Z,11.24
2023-02-23T11:39:34.440Z,11.19
2023-02-23T11:42:16.048Z,11.16
2023-02-23T11:44:42.890Z,11.21
2023-02-23T11:47:22.608Z,11.19
2023-02-23T11:49:50.828Z,11.15
2023-02-23T11:52:21.910Z,11.18
2023-02-23T11:55:02.151Z,11.24
2023-02-23T11:57:36.532Z,11.21
2023-02-23T12:00:14.221Z,11.29
2023-02-23T12:02:51.933Z,11.38
2023-02-23T12:05:23.591Z,11.44
2023-02-23T12:08:18.626Z,11.39
2023-02-23T12:10:53.487Z,11.31
2023-02-23T12:13:45.345Z,11.24
2023-02-23T12:16:23.396Z,11.24
2023-02-23T12:19:08.883Z,11.22
2023-02-23T12:21:50.767Z,11.29
2023-02-23T12:24:37.618Z,11.26
2023-02-23T12:27:04.259Z,11.32
2023-02-23T12:29:43.847Z,11.33
2023-02-23T12:32:19.229Z,11.36
2023-02-23T12:34:54.923Z,11.42
2023-02-23T12:37:21.523Z,11.46
2023-02-23T12:39:53.231Z,11.40
2023-02-23T12:42:30.986Z,11.40
2023-02-23T12:45:04.433Z,11.36
2023-02-23T12:47:40.570Z,11.38
2023-02-23T12:50:25.028Z,11.33
2023-02-23T12:52:57.795Z,11.29
2023-02-23T12:55:43.018Z,11.32
2023-02-23T12:58:30.983Z,11.38
2023-02-23T13:01:06.015Z,11.46
2023-02-23T13:04:30.564Z,11.53
2023-02-23T13:07:21.733Z,11.60
2023-02-23T13:10:00.648Z,11.63
2023-02-23T13:12:43.970Z,11.67
2023-02-23T13:15:26.947Z,11.60
2023-02-23T13:18:03.905Z,11.56
2023-02-23T13:20:37.415Z,11.59
2023-02-23T13:23:36.080Z,11.62
2023-02-23T13:26:19.130Z,11.65
2023-02-23T13:29:04.582Z,11.69
2023-02-23T13:31:39.654Z,11.79
2023-02-23T13:34:11.882Z,11.80
2023-02-23T13:36:40.790Z,11.79
2023-02-23T13:39:35.297Z,11.81
2023-02-23T13:42:20.250Z,11.87
2023-02-23T13:45:13.132Z,11.84
2023-02-23T13:47:39.744Z,11.90
2023-02-23T13:50:37.817Z,11.91
2023-02-23T13:53:08.420Z,11.97
2023-02-23T13:55:50.024Z,11.98
2023-02-23T13:58:25.681Z,12.02
2023-02-23T14:01:18.750Z,12.04
2023-02-23T14:03:53.689Z,12.07
2023-02-23T14:06:22.845Z,12.13
2023-02-23T14:09:00.921Z,12.08
2023-02-23T14:11:41.302Z,12.04
2023-02-23T14:14:13.366Z,12.01
2023-02-23T14:16:40.236Z,12.05
2023-02-23T14:19:12.023Z,12.11
2023-02-23T14:21:49.849Z,12.04
2023-02-23T14:24:25.128Z,12.01
2023-02-23T14:27:03.442Z,11.99
2023-02-23T14:29:32.123Z,12.01
2023-02-23T14:32:04.098Z,12.05
2023-02-23T14:34:47.987Z,12.10
2023-02-23T14:37:22.015Z,12.11
2023-02-23T14:39:50.991Z,12.10
2023-02-23T14:42:29.900Z,12.13
2023-02-23T14:45:02.757Z,12.14
2023-02-23T14:47:29.423Z,12.14
2023-02-23T14:50:01.548Z,12.15
2023-02-23T14:52:32.453Z,12.15
2023-02-23T14:55:11.101Z,12.13
2023-02-23T14:57:40.840Z,12.13
2023-02-23T15:00:23.579Z,12.11
2023-02-23T15:03:12.810Z,12.17
2023-02-23T15:05:45.063Z,12.17
2023-02-23T15:08:23.236Z,12.20
2023-02-23T15:10:59.783Z,12.15
2023-02-23T15:13:39.770Z,12.15
2023-02-23T15:16:27.870Z,12.14
2023-02-23T15:19:33.442Z,12.17
2023-02-23T15:22:03.244Z,12.15
2023-02-23T15:24:42.341Z,12.17
2023-02-23T15:27:22.768Z,12.17
2023-02-23T15:29:50.423Z,12.20
2023-02-23T15:32:23.612Z,12.21
2023-02-23T15:34:53.081Z,12.20
2023-02-23T15:37:40.350Z,12.13
2023-02-23T15:40:16.694Z,12.13
2023-02-23T15:42:49.826Z,12.07
2023-02-23T15:45:30.276Z,12.02
2023-02-23T15:47:59.626Z,12.02
2023-02-23T15:50:37.214Z,11.94
2023-02-23T15:53:29.163Z,11.91
2023-02-23T15:56:01.022Z,11.93
2023-02-23T15:58:41.822Z,11.91
2023-02-23T16:01:42.927Z,11.94
2023-02-23T16:04:12.507Z,11.93
2023-02-23T16:06:53.268Z,11.90
2023-02-23T16:09:24.173Z,11.90
2023-02-23T16:11:54.778Z,11.93
2023-02-23T16:14:23.569Z,11.93
2023-02-23T16:17:08.403Z,11.94
2023-02-23T16:19:40.841Z,11.93
2023-02-23T16:22:19.510Z,11.94
2023-02-23T16:24:54.075Z,11.97
2023-02-23T16:27:22.257Z,11.94
2023-02-23T16:30:00.211Z,11.98
2023-02-23T16:32:37.455Z,11.95
2023-02-23T16:35:17.916Z,11.98
2023-02-23T16:38:02.601Z,11.98
2023-02-23T16:40:29.564Z,11.94
2023-02-23T16:42:59.491Z,11.93
2023-02-23T16:45:27.338Z,11.94
2023-02-23T16:47:54.049Z,11.94
2023-02-23T16:50:24.242Z,11.95
2023-02-23T16:52:53.046Z,11.94
2023-02-23T16:55:28.338Z,11.94
2023-02-23T16:58:01.257Z,11.93
2023-02-23T17:00:31.104Z,11.95
2023-02-23T17:02:58.667Z,11.97
2023-02-23T17:05:25.457Z,11.93
2023-02-23T17:07:52.996Z,11.86
2023-02-23T17:10:25.197Z,11.83
2023-02-23T17:13:12.781Z,11.83
2023-02-23T17:15:48.093Z,11.84
2023-02-23T17:18:15.021Z,11.84
2023-02-23T17:20:41.660Z,11.86
2023-02-23T17:23:08.335Z,11.86
2023-02-23T17:25:35.295Z,11.88
2023-02-23T17:28:02.517Z,11.90
2023-02-23T17:30:30.565Z,11.88
2023-02-23T17:32:59.058Z,11.91
2023-02-23T17:35:26.110Z,11.90
2023-02-23T17:37:54.085Z,11.91
2023-02-23T17:40:29.393Z,11.93
2023-02-23T17:42:57.755Z,11.90
2023-02-23T17:45:25.126Z,11.91
2023-02-23T17:47:52.095Z,11.84
2023-02-23T17:50:22.671Z,11.76
2023-02-23T17:52:50.859Z,11.73
2023-02-23T17:55:19.010Z,11.74
2023-02-23T17:57:46.278Z,11.76
2023-02-23T18:00:15.434Z,11.79
2023-02-23T18:02:44.819Z,11.74
2023-02-23T18:05:13.581Z,11.71
2023-02-23T18:07:40.346Z,11.69
2023-02-23T18:10:07.891Z,11.71
2023-02-23T18:12:34.830Z,11.70
2023-02-23T18:15:01.514Z,11.70
2023-02-23T18:17:28.157Z,11.67
2023-02-23T18:19:54.784Z,11.66
2023-02-23T18:22:21.875Z,11.66
2023-02-23T18:24:57.315Z,11.62
2023-02-23T18:27:26.257Z,11.63
2023-02-23T18:29:52.865Z,11.65
2023-02-23T18:32:19.633Z,11.63
2023-02-23T18:34:46.417Z,11.55
2023-02-23T18:37:13.019Z,11.55
2023-02-23T18:39:39.639Z,11.56
2023-02-23T18:42:06.398Z,11.55
2023-02-23T18:44:35.181Z,11.58
2023-02-23T18:47:02.538Z,11.56
2023-02-23T18:49:29.198Z,11.58
2023-02-23T18:51:55.886Z,11.56
2023-02-23T18:54:22.545Z,11.56
2023-02-23T18:56:49.409Z,11.56
2023-02-23T18:59:16.328Z,11.55
2023-02-23T19:01:45.406Z,11.53
2023-02-23T19:04:12.653Z,11.50
2023-02-23T19:06:42.825Z,11.52
2023-02-23T19:09:15.315Z,11.50
2023-02-23T19:11:43.005Z,11.49
2023-02-23T19:14:16.080Z,11.49
2023-02-23T19:16:43.950Z,11.50
2023-02-23T19:19:10.856Z,11.47
2023-02-23T19:21:37.570Z,11.49
2023-02-23T19:24:06.231Z,11.46
2023-02-23T19:26:37.546Z,11.47
2023-02-23T19:29:04.957Z,11.47
2023-02-23T19:31:31.954Z,11.43
2023-02-23T19:33:59.745Z,11.44
2023-02-23T19:36:30.809Z,11.44
2023-02-23T19:39:10.643Z,11.43
2023-02-23T19:41:39.142Z,11.42
2023-02-23T19:44:05.971Z,11.40
2023-02-23T19:46:33.305Z,11.43
2023-02-23T19:49:00.104Z,11.44
2023-02-23T19:51:27.118Z,11.43
2023-02-23T19:53:55.292Z,11.46
2023-02-23T19:56:24.844Z,11.43
2023-02-23T19:58:52.313Z,11.39
2023-02-23T20:01:21.889Z,11.42
2023-02-23T20:03:56.798Z,11.40
2023-02-23T20:06:25.525Z,11.40
2023-02-23T20:08:52.699Z,11.38
2023-02-23T20:11:20.107Z,11.36
2023-02-23T20:13:46.974Z,11.39
2023-02-23T20:16:14.999Z,11.40
2023-02-23T20:18:42.619Z,11.43
2023-02-23T20:21:13.681Z,11.38
2023-02-23T20:23:41.559Z,11.36
2023-02-23T20:26:11.523Z,11.39
2023-02-23T20:28:38.476Z,11.36
2023-02-23T20:31:14.660Z,11.40
2023-02-23T20:33:41.498Z,11.39
2023-02-23T20:36:08.599Z,11.35
2023-02-23T20:38:35.187Z,11.32
2023-02-23T20:41:04.211Z,11.32
2023-02-23T20:43:31.344Z,11.33
2023-02-23T20:46:02.897Z,11.29
2023-02-23T20:48:31.102Z,11.31
2023-02-23T20:50:58.692Z,11.28
2023-02-23T20:53:26.293Z,11.32
2023-02-23T20:55:54.127Z,11.35
2023-02-23T20:58:26.408Z,11.33
2023-02-23T21:00:54.773Z,11.32
2023-02-23T21:03:22.014Z,11.32
2023-02-23T21:05:49.269Z,11.32
2023-02-23T21:08:16.056Z,11.33
2023-02-23T21:10:42.870Z,11.32
2023-02-23T21:13:12.386Z,11.31
2023-02-23T21:15:40.817Z,11.29
2023-02-23T21:18:08.333Z,11.32
2023-02-23T21:20:38.023Z,11.29
2023-02-23T21:23:04.903Z,11.22
2023-02-23T21:25:34.943Z,11.22
2023-02-23T21:28:02.026Z,11.15
2023-02-23T21:30:29.116Z,11.14
2023-02-23T21:32:57.185Z,11.14
2023-02-23T21:35:23.998Z,11.15
2023-02-23T21:37:51.958Z,11.12
2023-02-23T21:40:23.381Z,11.15
2023-02-23T21:42:50.799Z,11.14
2023-02-23T21:45:18.293Z,11.12
2023-02-23T21:47:46.037Z,11.07
2023-02-23T21:50:16.122Z,11.05
2023-02-23T21:52:45.548Z,11.05
2023-02-23T21:55:21.227Z,11.11
2023-02-23T21:57:49.154Z,11.11
2023-02-23T22:00:16.427Z,11.12
2023-02-23T22:02:46.422Z,11.11
2023-02-23T22:05:15.576Z,11.12
2023-02-23T22:07:48.150Z,11.12
2023-02-23T22:10:15.792Z,11.10
2023-02-23T22:12:42.368Z,11.10
2023-02-23T22:15:10.456Z,11.12
2023-02-23T22:17:38.670Z,11.11
2023-02-23T22:20:07.321Z,11.10
2023-02-23T22:22:36.235Z,11.07
2023-02-23T22:25:07.811Z,11.01
2023-02-23T22:27:34.596Z,10.97
2023-02-23T22:30:01.904Z,10.93
2023-02-23T22:32:32.926Z,10.95
2023-02-23T22:35:00.500Z,10.93
2023-02-23T22:37:31.745Z,10.94
2023-02-23T22:40:00.249Z,10.91
2023-02-23T22:42:29.773Z,10.87
2023-02-23T22:44:57.089Z,10.83
2023-02-23T22:47:24.426Z,10.84
2023-02-23T22:49:50.990Z,10.81
2023-02-23T22:52:17.772Z,10.83
2023-02-23T22:54:45.602Z,10.84
2023-02-23T22:57:13.385Z,10.85
2023-02-23T22:59:39.997Z,10.84
2023-02-23T23:02:06.800Z,10.78
2023-02-23T23:04:34.492Z,10.76
2023-02-23T23:07:01.487Z,10.76
2023-02-23T23:09:28.349Z,10.73
2023-02-23T23:11:56.759Z,10.70
2023-02-23T23:14:23.509Z,10.73
2023-02-23T23:16:50.309Z,10.73
2023-02-23T23:19:23.811Z,10.67
2023-02-23T23:21:56.129Z,10.66
2023-02-23T23:24:23.912Z,10.64
2023-02-23T23:26:55.594Z,10.64
2023-02-23T23:29:23.678Z,10.60
2023-02-23T23:31:51.755Z,10.49
2023-02-23T23:34:21.759Z,10.45
2023-02-23T23:36:49.911Z,10.42
2023-02-23T23:39:18.446Z,10.42
2023-02-23T23:41:48.572Z,10.48
2023-02-23T23:44:20.875Z,10.50
2023-02-23T23:46:50.740Z,10.52
2023-02-23T23:49:19.764Z,10.50
2023-02-23T23:51:50.155Z,10.46
2023-02-23T23:54:22.758Z,10.46
2023-02-23T23:56:50.170Z,10.48
2023-02-23T23:59:21.497Z,10.36
